createdAt,value
2023-04-24T00:00:53.914Z,11.60
2023-04-24T00:03:23.125Z,11.50
2023-04-24T00:05:51.918Z,11.40
2023-04-24T00:08:21.061Z,11.20
2023-04-24T00:10:48.934Z,11.20
2023-04-24T00:13:16.783Z,11.20
2023-04-24T00:15:44.584Z,11.10
2023-04-24T00:18:12.422Z,11.10
2023-04-24T00:20:40.640Z,11.10
2023-04-24T00:23:08.557Z,11.00
2023-04-24T00:25:37.796Z,11.00
2023-04-24T00:28:05.605Z,11.00
2023-04-24T00:30:33.559Z,11.00
2023-04-24T00:33:01.437Z,11.00
2023-04-24T00:35:29.257Z,11.00
2023-04-24T00:37:57.364Z,11.00
2023-04-24T00:40:25.235Z,11.00
2023-04-24T00:42:54.449Z,11.00
2023-04-24T00:45:22.417Z,11.10
2023-04-24T00:47:50.665Z,11.10
2023-04-24T00:50:18.718Z,11.00
2023-04-24T00:52:46.720Z,11.00
2023-04-24T00:55:14.622Z,11.00
2023-04-24T00:57:42.418Z,11.00
2023-04-24T01:00:12.957Z,10.90
2023-04-24T01:02:45.033Z,11.00
2023-04-24T01:05:14.158Z,10.90
2023-04-24T01:07:44.888Z,10.90
2023-04-24T01:10:26.164Z,10.90
2023-04-24T01:12:54.175Z,10.90
2023-04-24T01:15:23.417Z,10.90
2023-04-24T01:17:51.367Z,10.90
2023-04-24T01:20:20.108Z,10.90
2023-04-24T01:22:49.314Z,10.80
2023-04-24T01:25:17.446Z,10.80
2023-04-24T01:27:45.614Z,10.70
2023-04-24T01:30:14.785Z,10.70
2023-04-24T01:32:45.308Z,10.70
2023-04-24T01:35:13.225Z,10.70
2023-04-24T01:37:41.033Z,10.80
2023-04-24T01:40:11.254Z,10.90
2023-04-24T01:42:39.137Z,10.90
2023-04-24T01:45:08.219Z,10.90
2023-04-24T01:47:36.334Z,11.10
2023-04-24T01:50:04.578Z,11.10
2023-04-24T01:52:34.180Z,11.00
2023-04-24T01:55:02.392Z,11.10
2023-04-24T01:57:32.299Z,11.00
2023-04-24T02:00:00.358Z,11.00
2023-04-24T02:02:29.793Z,10.80
2023-04-24T02:04:58.112Z,10.70
2023-04-24T02:07:25.986Z,10.80
2023-04-24T02:09:53.899Z,10.80
2023-04-24T02:12:21.728Z,10.70
2023-04-24T02:14:51.108Z,10.70
2023-04-24T02:17:20.138Z,10.70
2023-04-24T02:19:48.040Z,10.70
2023-04-24T02:22:15.888Z,10.70
2023-04-24T02:24:43.742Z,10.70
2023-04-24T02:27:12.396Z,10.70
2023-04-24T02:29:40.297Z,10.80
2023-04-24T02:32:12.400Z,10.80
2023-04-24T02:34:40.311Z,10.80
2023-04-24T02:37:08.103Z,10.80
2023-04-24T02:39:35.967Z,10.80
2023-04-24T02:42:03.849Z,10.80
2023-04-24T02:44:31.655Z,10.80
2023-04-24T02:46:59.469Z,10.80
2023-04-24T02:49:28.959Z,10.90
2023-04-24T02:51:56.775Z,11.00
2023-04-24T02:54:24.608Z,11.00
2023-04-24T02:56:52.410Z,11.10
2023-04-24T02:59:20.260Z,11.30
2023-04-24T03:01:48.270Z,11.40
2023-04-24T03:04:16.795Z,11.40
2023-04-24T03:06:46.113Z,11.40
2023-04-24T03:09:13.915Z,11.50
2023-04-24T03:11:41.729Z,11.40
2023-04-24T03:14:09.723Z,11.50
2023-04-24T03:16:37.641Z,11.40
2023-04-24T03:19:05.766Z,11.50
2023-04-24T03:21:33.764Z,11.50
2023-04-24T03:24:03.231Z,11.50
2023-04-24T03:26:31.065Z,11.40
2023-04-24T03:28:58.832Z,11.50
2023-04-24T03:31:26.675Z,11.40
2023-04-24T03:33:54.486Z,11.50
2023-04-24T03:36:22.284Z,11.50
2023-04-24T03:38:50.207Z,11.40
2023-04-24T03:41:19.811Z,11.40
2023-04-24T03:43:47.639Z,11.40
2023-04-24T03:46:16.132Z,11.40
2023-04-24T03:48:50.959Z,11.30
2023-04-24T03:51:18.778Z,11.30
2023-04-24T03:53:46.603Z,11.20
2023-04-24T03:56:14.517Z,11.20
2023-04-24T03:58:44.610Z,11.10
2023-04-24T04:01:12.603Z,11.00
2023-04-24T04:03:41.278Z,10.90
2023-04-24T04:06:09.305Z,10.90
2023-04-24T04:08:37.091Z,10.90
2023-04-24T04:11:05.469Z,10.90
2023-04-24T04:13:33.468Z,10.80
2023-04-24T04:16:02.656Z,10.80
2023-04-24T04:18:30.505Z,10.70
2023-04-24T04:20:58.768Z,10.80
2023-04-24T04:23:26.791Z,10.70
2023-04-24T04:25:55.845Z,10.60
2023-04-24T04:28:23.668Z,10.60
2023-04-24T04:30:54.594Z,10.50
2023-04-24T04:33:23.878Z,10.50
2023-04-24T04:35:52.946Z,10.50
2023-04-24T04:38:20.963Z,10.50
2023-04-24T04:40:48.820Z,10.60
2023-04-24T04:43:16.984Z,10.60
2023-04-24T04:45:45.872Z,10.60
2023-04-24T04:48:14.837Z,10.70
2023-04-24T04:50:44.033Z,10.80
2023-04-24T04:53:11.864Z,10.90
2023-04-24T04:55:40.045Z,10.80
2023-04-24T04:58:07.990Z,10.90
2023-04-24T05:00:36.744Z,10.80
2023-04-24T05:03:19.035Z,10.60
2023-04-24T05:05:49.617Z,10.50
2023-04-24T05:08:26.587Z,10.40
2023-04-24T05:10:56.022Z,10.30
2023-04-24T05:13:35.791Z,10.30
2023-04-24T05:16:06.857Z,10.30
2023-04-24T05:18:34.825Z,10.10
2023-04-24T05:21:04.086Z,10.00
2023-04-24T05:23:31.893Z,10.00
2023-04-24T05:25:59.828Z,9.90
2023-04-24T05:28:29.251Z,9.90
2023-04-24T05:30:57.724Z,9.90
2023-04-24T05:33:25.605Z,9.80
2023-04-24T05:35:53.432Z,9.80
2023-04-24T05:38:22.585Z,9.80
2023-04-24T05:40:50.573Z,9.80
2023-04-24T05:43:18.396Z,9.80
2023-04-24T05:45:46.213Z,9.70
2023-04-24T05:48:14.032Z,9.80
2023-04-24T05:50:41.932Z,9.80
2023-04-24T05:53:11.439Z,9.90
2023-04-24T05:55:40.808Z,9.80
2023-04-24T05:58:08.707Z,9.90
2023-04-24T06:00:37.078Z,9.90
2023-04-24T06:03:05.265Z,10.00
2023-04-24T06:05:33.705Z,10.00
2023-04-24T06:08:01.536Z,9.90
2023-04-24T06:10:29.412Z,9.80
2023-04-24T06:13:01.173Z,9.70
2023-04-24T06:15:31.340Z,9.70
2023-04-24T06:17:59.704Z,9.70
2023-04-24T06:20:28.941Z,9.80
2023-04-24T06:22:56.919Z,9.90
2023-04-24T06:25:27.038Z,10.00
2023-04-24T06:27:54.933Z,10.00
2023-04-24T06:30:24.413Z,10.10
2023-04-24T06:32:52.465Z,10.10
2023-04-24T06:35:20.532Z,10.10
2023-04-24T06:37:48.469Z,10.10
2023-04-24T06:40:16.508Z,10.20
2023-04-24T06:42:44.308Z,10.40
2023-04-24T06:45:12.537Z,10.70
2023-04-24T06:47:41.779Z,10.90
2023-04-24T06:50:10.579Z,11.00
2023-04-24T06:52:38.407Z,11.10
2023-04-24T06:55:07.367Z,11.30
2023-04-24T06:57:35.302Z,11.40
2023-04-24T07:00:04.301Z,11.50
2023-04-24T07:02:32.198Z,11.60
2023-04-24T07:05:02.206Z,11.80
2023-04-24T07:07:30.106Z,12.00
2023-04-24T07:09:58.608Z,12.10
2023-04-24T07:12:26.696Z,12.30
2023-04-24T07:14:55.353Z,12.10
2023-04-24T07:17:23.276Z,12.00
2023-04-24T07:19:51.099Z,12.00
2023-04-24T07:22:20.390Z,11.80
2023-04-24T07:24:48.191Z,11.80
2023-04-24T07:27:16.365Z,11.90
2023-04-24T07:29:45.001Z,12.00
2023-04-24T07:32:13.200Z,12.10
2023-04-24T07:34:41.439Z,12.20
2023-04-24T07:37:09.313Z,12.40
2023-04-24T07:39:38.559Z,12.40
2023-04-24T07:42:06.546Z,12.60
2023-04-24T07:44:34.402Z,12.70
2023-04-24T07:47:02.236Z,12.70
2023-04-24T07:49:30.068Z,12.60
2023-04-24T07:51:57.906Z,12.50
2023-04-24T07:54:25.769Z,12.60
2023-04-24T07:56:54.968Z,12.70
2023-04-24T07:59:22.834Z,12.80
2023-04-24T08:01:50.856Z,13.00
2023-04-24T08:04:18.964Z,13.20
2023-04-24T08:06:46.926Z,13.20
2023-04-24T08:09:14.751Z,13.20
2023-04-24T08:11:42.641Z,13.30
2023-04-24T08:14:13.472Z,13.60
2023-04-24T08:16:41.397Z,14.00
2023-04-24T08:19:09.517Z,14.20
2023-04-24T08:21:37.451Z,14.40
2023-04-24T08:24:08.593Z,14.40
2023-04-24T08:26:36.576Z,14.40
2023-04-24T08:29:04.705Z,14.30
2023-04-24T08:31:34.631Z,14.00
2023-04-24T08:34:02.669Z,13.90
2023-04-24T08:36:40.042Z,13.70
2023-04-24T08:39:14.301Z,13.40
2023-04-24T08:41:43.973Z,13.20
2023-04-24T08:44:12.551Z,12.90
2023-04-24T08:46:42.348Z,12.80
2023-04-24T08:49:10.192Z,12.60
2023-04-24T08:51:39.139Z,12.50
2023-04-24T08:54:08.207Z,12.30
2023-04-24T08:56:40.206Z,12.20
2023-04-24T08:59:08.332Z,12.10
2023-04-24T09:01:40.631Z,12.00
2023-04-24T09:04:12.028Z,12.00
2023-04-24T09:06:41.167Z,12.00
2023-04-24T09:09:10.315Z,11.90
2023-04-24T09:11:39.185Z,11.90
2023-04-24T09:14:07.408Z,12.00
2023-04-24T09:16:36.740Z,12.10
2023-04-24T09:19:05.143Z,12.20
2023-04-24T09:21:36.719Z,12.30
2023-04-24T09:24:08.105Z,12.30
2023-04-24T09:26:38.518Z,12.10
2023-04-24T09:29:06.518Z,12.00
2023-04-24T09:31:34.448Z,12.00
2023-04-24T09:34:05.738Z,11.90
2023-04-24T09:36:38.866Z,12.00
2023-04-24T09:39:09.247Z,12.20
2023-04-24T09:41:46.763Z,12.30
2023-04-24T09:44:16.270Z,12.40
2023-04-24T09:46:44.906Z,12.40
2023-04-24T09:49:17.193Z,12.70
2023-04-24T09:51:46.417Z,12.90
2023-04-24T09:54:17.954Z,13.00
2023-04-24T09:56:47.210Z,13.00
2023-04-24T09:59:15.856Z,13.10
2023-04-24T10:01:45.699Z,13.00
2023-04-24T10:04:19.157Z,13.00
2023-04-24T10:06:49.761Z,12.90
2023-04-24T10:09:17.841Z,13.00
2023-04-24T10:11:47.387Z,12.90
2023-04-24T10:14:16.333Z,12.70
2023-04-24T10:16:45.233Z,12.60
2023-04-24T10:19:14.111Z,12.50
2023-04-24T10:21:47.098Z,12.40
2023-04-24T10:24:17.278Z,12.30
2023-04-24T10:26:47.027Z,12.20
2023-04-24T10:29:17.405Z,12.20
2023-04-24T10:31:46.797Z,12.10
2023-04-24T10:34:16.448Z,11.90
2023-04-24T10:36:50.073Z,11.90
2023-04-24T10:39:27.637Z,11.90
2023-04-24T10:41:58.558Z,12.00
2023-04-24T10:44:27.607Z,12.10
2023-04-24T10:46:57.211Z,12.20
2023-04-24T10:49:31.635Z,12.50
2023-04-24T10:52:03.586Z,12.70
2023-04-24T10:54:37.145Z,12.80
2023-04-24T10:57:37.804Z,13.00
2023-04-24T11:00:21.615Z,13.50
2023-04-24T11:02:51.777Z,14.20
2023-04-24T11:05:21.298Z,14.50
2023-04-24T11:08:14.690Z,14.60
2023-04-24T11:10:46.898Z,14.40
2023-04-24T11:13:17.553Z,14.20
2023-04-24T11:15:45.489Z,14.00
2023-04-24T11:18:17.460Z,14.00
2023-04-24T11:20:46.704Z,13.80
2023-04-24T11:23:15.280Z,13.70
2023-04-24T11:25:45.256Z,13.60
2023-04-24T11:28:18.143Z,13.50
2023-04-24T11:30:45.971Z,14.10
2023-04-24T11:33:21.855Z,14.70
2023-04-24T11:35:49.711Z,14.90
2023-04-24T11:38:24.560Z,15.20
2023-04-24T11:40:55.325Z,15.50
2023-04-24T11:43:23.532Z,16.00
2023-04-24T11:45:51.660Z,16.20
2023-04-24T11:48:23.425Z,16.80
2023-04-24T11:50:52.952Z,16.90
2023-04-24T11:53:22.441Z,16.30
2023-04-24T11:55:50.299Z,15.70
2023-04-24T11:58:23.578Z,15.30
2023-04-24T12:00:58.292Z,14.60
2023-04-24T12:03:26.645Z,13.90
2023-04-24T12:05:55.051Z,13.00
2023-04-24T12:08:30.288Z,12.40
2023-04-24T12:10:58.834Z,12.10
2023-04-24T12:13:29.040Z,12.10
2023-04-24T12:15:57.016Z,12.00
2023-04-24T12:18:25.335Z,11.80
2023-04-24T12:20:53.262Z,11.70
2023-04-24T12:23:36.784Z,11.60
2023-04-24T12:26:06.540Z,11.60
2023-04-24T12:28:39.505Z,11.70
2023-04-24T12:31:08.629Z,11.90
2023-04-24T12:33:37.772Z,12.10
2023-04-24T12:36:06.359Z,12.20
2023-04-24T12:38:41.118Z,12.40
2023-04-24T12:41:11.402Z,12.60
2023-04-24T12:43:40.754Z,12.80
2023-04-24T12:46:08.703Z,13.00
2023-04-24T12:48:36.648Z,13.20
2023-04-24T12:51:04.669Z,14.00
2023-04-24T12:53:32.507Z,14.90
2023-04-24T12:56:00.412Z,15.50
2023-04-24T12:58:28.293Z,15.80
2023-04-24T13:00:57.487Z,15.50
2023-04-24T13:03:25.455Z,15.00
2023-04-24T13:05:53.480Z,14.60
2023-04-24T13:08:21.342Z,14.90
2023-04-24T13:10:49.282Z,15.70
2023-04-24T13:13:17.123Z,16.00
2023-04-24T13:15:44.926Z,15.90
2023-04-24T13:18:14.109Z,15.50
2023-04-24T13:20:42.630Z,15.30
2023-04-24T13:23:11.143Z,14.80
2023-04-24T13:25:40.021Z,14.50
2023-04-24T13:28:07.977Z,14.10
2023-04-24T13:30:36.374Z,14.00
2023-04-24T13:33:04.920Z,13.80
2023-04-24T13:35:34.071Z,14.00
2023-04-24T13:38:04.479Z,14.00
2023-04-24T13:40:32.342Z,13.90
2023-04-24T13:43:00.287Z,13.70
2023-04-24T13:45:28.222Z,13.50
2023-04-24T13:47:56.216Z,13.40
2023-04-24T13:50:24.224Z,13.40
2023-04-24T13:52:53.348Z,13.90
2023-04-24T13:55:21.284Z,14.90
2023-04-24T13:57:49.204Z,15.60
2023-04-24T14:00:17.885Z,16.40
2023-04-24T14:02:46.030Z,16.70
2023-04-24T14:05:15.299Z,16.70
2023-04-24T14:07:43.521Z,16.60
2023-04-24T14:10:12.943Z,16.10
2023-04-24T14:12:40.873Z,15.80
2023-04-24T14:15:10.306Z,15.80
2023-04-24T14:17:38.169Z,16.20
2023-04-24T14:20:07.834Z,16.20
2023-04-24T14:22:35.649Z,16.00
2023-04-24T14:25:04.303Z,15.50
2023-04-24T14:27:35.468Z,15.00
2023-04-24T14:30:04.146Z,14.50
2023-04-24T14:32:32.266Z,14.30
2023-04-24T14:35:00.167Z,14.00
2023-04-24T14:37:28.024Z,14.00
2023-04-24T14:40:08.739Z,13.90
2023-04-24T14:42:44.835Z,13.90
2023-04-24T14:45:13.147Z,13.90
2023-04-24T14:47:41.126Z,13.90
2023-04-24T14:50:11.151Z,14.00
2023-04-24T14:52:39.286Z,14.10
2023-04-24T14:55:08.649Z,14.20
2023-04-24T14:57:36.887Z,14.20
2023-04-24T15:00:09.593Z,14.10
2023-04-24T15:02:40.919Z,14.00
2023-04-24T15:05:10.426Z,14.00
2023-04-24T15:07:38.826Z,14.00
2023-04-24T15:10:07.701Z,14.00
2023-04-24T15:12:35.634Z,13.90
2023-04-24T15:15:03.475Z,14.00
2023-04-24T15:17:32.800Z,13.90
2023-04-24T15:20:01.904Z,13.80
2023-04-24T15:22:29.868Z,13.70
2023-04-24T15:24:57.731Z,13.60
2023-04-24T15:27:25.625Z,13.60
2023-04-24T15:29:54.528Z,13.60
2023-04-24T15:32:22.480Z,13.60
2023-04-24T15:35:04.735Z,13.60
2023-04-24T15:37:35.529Z,13.60
2023-04-24T15:40:05.237Z,13.50
2023-04-24T15:42:33.095Z,13.50
2023-04-24T15:45:00.924Z,13.50
2023-04-24T15:47:28.813Z,13.60
2023-04-24T15:49:59.696Z,13.60
2023-04-24T15:52:27.643Z,13.70
2023-04-24T15:54:55.666Z,13.60
2023-04-24T15:57:23.618Z,13.60
2023-04-24T15:59:51.443Z,13.60
2023-04-24T16:02:20.682Z,13.40
2023-04-24T16:04:49.755Z,13.40
2023-04-24T16:07:19.440Z,13.30
2023-04-24T16:09:47.424Z,13.10
2023-04-24T16:12:15.520Z,13.10
2023-04-24T16:14:43.536Z,13.10
2023-04-24T16:17:11.364Z,13.20
2023-04-24T16:19:39.264Z,13.20
2023-04-24T16:22:07.118Z,13.20
2023-04-24T16:24:36.415Z,13.10
2023-04-24T16:27:04.412Z,13.10
2023-04-24T16:29:32.461Z,13.20
2023-04-24T16:32:00.291Z,13.30
2023-04-24T16:34:28.115Z,13.40
2023-04-24T16:36:56.542Z,13.40
2023-04-24T16:39:24.595Z,13.60
2023-04-24T16:41:55.855Z,13.60
2023-04-24T16:44:25.303Z,13.60
2023-04-24T16:46:53.229Z,13.60
2023-04-24T16:49:21.149Z,13.60
2023-04-24T16:51:49.016Z,13.50
2023-04-24T16:54:16.940Z,13.50
2023-04-24T16:56:44.742Z,13.50
2023-04-24T16:59:13.938Z,13.50
2023-04-24T17:01:41.768Z,13.40
2023-04-24T17:04:09.668Z,13.40
2023-04-24T17:06:37.573Z,13.40
2023-04-24T17:09:05.467Z,13.20
2023-04-24T17:11:33.331Z,13.20
2023-04-24T17:14:01.175Z,13.10
2023-04-24T17:16:30.421Z,13.00
2023-04-24T17:18:58.313Z,13.10
2023-04-24T17:21:26.577Z,13.10
2023-04-24T17:23:54.425Z,13.10
2023-04-24T17:26:22.262Z,13.00
2023-04-24T17:28:50.329Z,13.00
2023-04-24T17:31:18.456Z,13.00
2023-04-24T17:33:47.653Z,13.00
2023-04-24T17:36:15.567Z,13.00
2023-04-24T17:38:43.398Z,13.00
2023-04-24T17:41:11.216Z,12.90
2023-04-24T17:43:39.009Z,12.80
2023-04-24T17:46:07.739Z,12.80
2023-04-24T17:48:36.596Z,12.70
2023-04-24T17:51:05.957Z,12.60
2023-04-24T17:53:33.862Z,12.40
2023-04-24T17:56:03.828Z,12.30
2023-04-24T17:58:32.228Z,12.00
2023-04-24T18:01:00.161Z,11.90
2023-04-24T18:03:28.204Z,11.80
2023-04-24T18:05:56.167Z,11.80
2023-04-24T18:08:25.646Z,11.70
2023-04-24T18:10:53.547Z,11.70
2023-04-24T18:13:21.362Z,11.60
2023-04-24T18:15:49.229Z,11.50
2023-04-24T18:18:18.061Z,11.50
2023-04-24T18:20:46.832Z,11.50
2023-04-24T18:23:14.661Z,11.50
2023-04-24T18:25:43.780Z,11.60
2023-04-24T18:28:11.684Z,11.60
2023-04-24T18:30:39.560Z,11.50
2023-04-24T18:33:07.425Z,11.40
2023-04-24T18:35:35.355Z,11.40
2023-04-24T18:38:03.169Z,11.40
2023-04-24T18:40:30.988Z,11.40
2023-04-24T18:43:00.243Z,11.30
2023-04-24T18:45:28.092Z,11.30
2023-04-24T18:47:56.080Z,11.30
2023-04-24T18:50:25.627Z,11.40
2023-04-24T18:52:53.509Z,11.20
2023-04-24T18:55:21.400Z,10.90
2023-04-24T18:57:49.232Z,10.80
2023-04-24T19:00:18.906Z,10.60
2023-04-24T19:02:46.830Z,10.60
2023-04-24T19:05:14.728Z,10.50
2023-04-24T19:07:42.493Z,10.50
2023-04-24T19:10:11.220Z,10.40
2023-04-24T19:12:39.707Z,10.30
2023-04-24T19:15:11.482Z,10.30
2023-04-24T19:17:40.700Z,10.20
2023-04-24T19:20:09.420Z,10.10
2023-04-24T19:22:37.255Z,10.20
2023-04-24T19:25:05.711Z,10.10
2023-04-24T19:27:33.563Z,10.10
2023-04-24T19:30:01.375Z,10.10
2023-04-24T19:32:29.863Z,10.20
2023-04-24T19:34:59.098Z,10.20
2023-04-24T19:37:27.196Z,10.30
2023-04-24T19:39:55.255Z,10.30
2023-04-24T19:42:31.733Z,10.30
2023-04-24T19:45:04.152Z,10.30
2023-04-24T19:47:32.000Z,10.30
2023-04-24T19:50:01.211Z,10.30
2023-04-24T19:52:29.030Z,10.40
2023-04-24T19:54:56.864Z,10.40
2023-04-24T19:57:24.637Z,10.40
2023-04-24T19:59:52.484Z,10.40
2023-04-24T20:02:20.590Z,10.40
2023-04-24T20:04:48.734Z,10.40
2023-04-24T20:07:18.363Z,10.40
2023-04-24T20:09:46.161Z,10.30
2023-04-24T20:12:13.954Z,10.40
2023-04-24T20:14:41.823Z,10.40
2023-04-24T20:17:09.790Z,10.40
2023-04-24T20:19:37.720Z,10.50
2023-04-24T20:22:05.698Z,10.50
2023-04-24T20:24:35.177Z,10.50
2023-04-24T20:27:02.962Z,10.40
2023-04-24T20:29:31.378Z,10.40
2023-04-24T20:32:00.135Z,10.40
2023-04-24T20:34:27.984Z,10.40
2023-04-24T20:36:56.584Z,10.40
2023-04-24T20:39:24.458Z,10.60
2023-04-24T20:41:53.775Z,10.50
2023-04-24T20:44:21.693Z,10.60
2023-04-24T20:46:49.546Z,10.60
2023-04-24T20:49:17.349Z,10.70
2023-04-24T20:51:45.211Z,10.80
2023-04-24T20:54:13.069Z,10.80
2023-04-24T20:56:40.919Z,10.80
2023-04-24T20:59:10.290Z,10.80
2023-04-24T21:01:38.432Z,10.90
2023-04-24T21:04:06.349Z,10.90
2023-04-24T21:06:34.176Z,10.90
2023-04-24T21:09:02.053Z,10.80
2023-04-24T21:11:29.837Z,10.80
2023-04-24T21:13:57.693Z,10.90
2023-04-24T21:16:27.097Z,10.70
2023-04-24T21:18:54.900Z,10.80
2023-04-24T21:21:25.010Z,10.70
2023-04-24T21:23:52.868Z,10.70
2023-04-24T21:26:20.857Z,10.80
2023-04-24T21:28:48.780Z,10.80
2023-04-24T21:31:16.587Z,10.70
2023-04-24T21:33:45.712Z,10.70
2023-04-24T21:36:13.553Z,10.60
2023-04-24T21:38:41.386Z,10.60
2023-04-24T21:41:09.261Z,10.60
2023-04-24T21:43:44.704Z,10.50
2023-04-24T21:46:13.356Z,10.40
2023-04-24T21:48:41.191Z,10.40
2023-04-24T21:51:10.650Z,10.40
2023-04-24T21:53:38.464Z,10.50
2023-04-24T21:56:06.894Z,10.40
2023-04-24T21:58:35.577Z,10.20
2023-04-24T22:01:03.558Z,10.20
2023-04-24T22:03:31.615Z,10.20
2023-04-24T22:05:59.562Z,10.20
2023-04-24T22:08:28.722Z,10.10
2023-04-24T22:10:56.616Z,10.10
2023-04-24T22:13:24.456Z,10.20
2023-04-24T22:15:52.343Z,10.00
2023-04-24T22:18:20.300Z,10.00
2023-04-24T22:20:48.509Z,10.10
2023-04-24T22:23:16.359Z,10.00
2023-04-24T22:25:45.589Z,10.10
2023-04-24T22:28:13.396Z,10.20
2023-04-24T22:30:41.223Z,10.30
2023-04-24T22:33:09.934Z,10.40
2023-04-24T22:35:37.835Z,10.40
2023-04-24T22:38:05.666Z,10.40
2023-04-24T22:40:34.935Z,10.30
2023-04-24T22:43:04.452Z,10.30
2023-04-24T22:45:32.371Z,10.30
2023-04-24T22:48:00.360Z,10.10
2023-04-24T22:50:29.005Z,10.10
2023-04-24T22:52:56.843Z,9.90
2023-04-24T22:55:24.697Z,9.90
2023-04-24T22:57:52.580Z,9.80
2023-04-24T23:00:21.764Z,9.80
2023-04-24T23:02:50.181Z,9.60
2023-04-24T23:05:17.996Z,9.70
2023-04-24T23:07:46.265Z,9.70
2023-04-24T23:10:14.221Z,9.70
2023-04-24T23:12:42.020Z,9.80
2023-04-24T23:15:11.846Z,9.80
2023-04-24T23:17:41.420Z,9.90
2023-04-24T23:20:12.926Z,9.80
2023-04-24T23:22:40.872Z,9.70
2023-04-24T23:25:10.887Z,9.70
2023-04-24T23:27:38.978Z,9.70
2023-04-24T23:30:08.200Z,9.80
2023-04-24T23:32:36.042Z,9.60
2023-04-24T23:35:06.394Z,9.60
2023-04-24T23:37:34.875Z,9.50
2023-04-24T23:40:02.751Z,9.40
2023-04-24T23:42:30.720Z,9.40
2023-04-24T23:44:58.513Z,9.40
2023-04-24T23:47:27.410Z,9.30
2023-04-24T23:49:55.438Z,9.20
2023-04-24T23:52:24.626Z,9.20
2023-04-24T23:54:52.539Z,9.10
2023-04-24T23:57:21.469Z,9.10
2023-04-24T23:59:49.306Z,9.10
